createdAt,value
2023-05-14T00:01:49.088Z,10.70
2023-05-14T00:04:17.274Z,10.70
2023-05-14T00:06:45.229Z,10.80
2023-05-14T00:09:13.275Z,10.80
2023-05-14T00:11:41.318Z,10.70
2023-05-14T00:14:09.364Z,10.80
2023-05-14T00:16:37.503Z,10.70
2023-05-14T00:19:07.019Z,10.60
2023-05-14T00:21:35.060Z,10.50
2023-05-14T00:24:03.011Z,10.50
2023-05-14T00:26:31.002Z,10.50
2023-05-14T00:28:58.938Z,10.50
2023-05-14T00:31:26.946Z,10.40
2023-05-14T00:33:54.999Z,10.40
2023-05-14T00:36:24.450Z,10.40
2023-05-14T00:38:52.431Z,10.50
2023-05-14T00:41:20.969Z,10.40
2023-05-14T00:43:48.939Z,10.40
2023-05-14T00:46:17.519Z,10.30
2023-05-14T00:48:46.425Z,10.40
2023-05-14T00:51:14.611Z,10.30
2023-05-14T00:53:44.914Z,10.40
2023-05-14T00:56:13.056Z,10.40
2023-05-14T00:58:41.010Z,10.30
2023-05-14T01:01:09.051Z,10.20
2023-05-14T01:03:37.694Z,10.20
2023-05-14T01:06:13.185Z,10.10
2023-05-14T01:08:51.855Z,10.10
2023-05-14T01:11:25.848Z,10.00
2023-05-14T01:14:03.846Z,10.10
2023-05-14T01:16:35.137Z,10.10
2023-05-14T01:19:06.578Z,10.20
2023-05-14T01:21:41.010Z,10.30
2023-05-14T01:24:09.441Z,10.20
2023-05-14T01:26:38.209Z,10.20
2023-05-14T01:29:13.834Z,10.10
2023-05-14T01:31:46.819Z,10.10
2023-05-14T01:34:16.926Z,10.10
2023-05-14T01:36:46.759Z,10.10
2023-05-14T01:39:15.894Z,10.20
2023-05-14T01:41:45.080Z,10.20
2023-05-14T01:44:13.780Z,10.20
2023-05-14T01:46:41.841Z,10.20
2023-05-14T01:49:09.864Z,10.10
2023-05-14T01:51:37.904Z,9.90
2023-05-14T01:54:07.297Z,9.90
2023-05-14T01:56:35.360Z,9.80
2023-05-14T01:59:03.345Z,9.60
2023-05-14T02:01:31.784Z,9.50
2023-05-14T02:04:01.072Z,9.50
2023-05-14T02:06:29.081Z,9.40
2023-05-14T02:08:57.084Z,9.50
2023-05-14T02:11:26.390Z,9.50
2023-05-14T02:13:54.332Z,9.50
2023-05-14T02:16:22.300Z,9.50
2023-05-14T02:18:50.387Z,9.40
2023-05-14T02:21:18.410Z,9.40
2023-05-14T02:23:46.414Z,9.30
2023-05-14T02:26:14.387Z,9.40
2023-05-14T02:28:43.838Z,9.40
2023-05-14T02:31:11.802Z,9.40
2023-05-14T02:33:39.856Z,9.40
2023-05-14T02:36:08.581Z,9.30
2023-05-14T02:38:36.532Z,9.10
2023-05-14T02:41:04.608Z,9.20
2023-05-14T02:43:32.569Z,9.20
2023-05-14T02:46:01.949Z,9.30
2023-05-14T02:48:29.967Z,9.30
2023-05-14T02:50:57.914Z,9.30
2023-05-14T02:53:26.047Z,9.20
2023-05-14T02:55:54.031Z,9.20
2023-05-14T02:58:28.088Z,9.20
2023-05-14T03:00:56.684Z,9.20
2023-05-14T03:03:26.558Z,9.10
2023-05-14T03:05:55.134Z,9.00
2023-05-14T03:08:23.142Z,9.00
2023-05-14T03:10:51.110Z,9.10
2023-05-14T03:13:20.732Z,9.20
2023-05-14T03:15:48.840Z,9.20
2023-05-14T03:18:16.937Z,9.20
2023-05-14T03:20:46.302Z,9.20
2023-05-14T03:23:14.899Z,9.10
2023-05-14T03:25:42.984Z,9.20
2023-05-14T03:28:10.985Z,9.20
2023-05-14T03:30:39.096Z,9.40
2023-05-14T03:33:07.240Z,9.50
2023-05-14T03:35:35.332Z,9.50
2023-05-14T03:38:04.661Z,9.40
2023-05-14T03:40:32.696Z,9.30
2023-05-14T03:43:00.785Z,9.20
2023-05-14T03:45:30.426Z,9.20
2023-05-14T03:47:58.516Z,9.20
2023-05-14T03:50:26.709Z,9.20
2023-05-14T03:52:55.069Z,9.40
2023-05-14T03:55:24.692Z,9.40
2023-05-14T03:57:52.695Z,9.40
2023-05-14T04:00:21.432Z,9.40
2023-05-14T04:02:49.801Z,9.30
2023-05-14T04:05:18.043Z,9.40
2023-05-14T04:07:46.385Z,9.50
2023-05-14T04:10:14.520Z,9.50
2023-05-14T04:12:43.848Z,9.50
2023-05-14T04:15:12.647Z,9.50
2023-05-14T04:17:40.711Z,9.50
2023-05-14T04:20:09.819Z,9.50
2023-05-14T04:22:37.810Z,9.50
2023-05-14T04:25:06.389Z,9.60
2023-05-14T04:27:34.514Z,9.70
2023-05-14T04:30:04.000Z,9.70
2023-05-14T04:32:32.061Z,9.80
2023-05-14T04:35:00.011Z,9.70
2023-05-14T04:37:27.967Z,9.80
2023-05-14T04:39:55.944Z,9.90
2023-05-14T04:42:24.141Z,10.00
2023-05-14T04:44:52.290Z,10.00
2023-05-14T04:47:22.285Z,10.00
2023-05-14T04:49:50.417Z,9.90
2023-05-14T04:52:18.415Z,9.80
2023-05-14T04:54:46.502Z,9.90
2023-05-14T04:57:14.529Z,9.90
2023-05-14T04:59:42.535Z,10.10
2023-05-14T05:02:11.590Z,10.20
2023-05-14T05:04:40.968Z,10.40
2023-05-14T05:07:08.920Z,10.40
2023-05-14T05:09:36.894Z,10.50
2023-05-14T05:12:05.476Z,10.60
2023-05-14T05:14:33.570Z,10.70
2023-05-14T05:17:01.556Z,10.70
2023-05-14T05:19:42.461Z,10.70
2023-05-14T05:22:12.869Z,10.80
2023-05-14T05:24:40.859Z,10.90
2023-05-14T05:27:08.887Z,11.00
2023-05-14T05:29:36.840Z,11.00
2023-05-14T05:32:05.232Z,11.10
2023-05-14T05:34:33.260Z,11.20
2023-05-14T05:37:01.225Z,11.20
2023-05-14T05:39:34.711Z,11.30
2023-05-14T05:42:03.208Z,11.40
2023-05-14T05:44:31.227Z,11.50
2023-05-14T05:46:59.400Z,11.60
2023-05-14T05:49:27.479Z,11.60
2023-05-14T05:51:55.460Z,11.70
2023-05-14T05:54:25.384Z,11.80
2023-05-14T05:56:54.749Z,11.90
2023-05-14T05:59:22.766Z,12.00
2023-05-14T06:01:50.761Z,12.00
2023-05-14T06:04:18.815Z,12.00
2023-05-14T06:06:46.794Z,12.20
2023-05-14T06:09:14.737Z,12.30
2023-05-14T06:11:43.186Z,12.40
2023-05-14T06:14:12.537Z,12.50
2023-05-14T06:16:40.615Z,12.60
2023-05-14T06:19:08.789Z,12.60
2023-05-14T06:21:36.916Z,12.70
2023-05-14T06:24:05.259Z,12.80
2023-05-14T06:26:33.304Z,12.80
2023-05-14T06:29:01.543Z,13.00
2023-05-14T06:31:31.048Z,13.20
2023-05-14T06:33:59.035Z,13.30
2023-05-14T06:36:27.033Z,13.40
2023-05-14T06:38:55.009Z,13.60
2023-05-14T06:41:23.013Z,13.70
2023-05-14T06:43:50.965Z,13.80
2023-05-14T06:46:18.965Z,14.00
2023-05-14T06:48:48.344Z,14.10
2023-05-14T06:51:16.601Z,14.40
2023-05-14T06:53:44.639Z,14.40
2023-05-14T06:56:13.652Z,14.50
2023-05-14T06:58:41.673Z,14.60
2023-05-14T07:01:09.740Z,14.70
2023-05-14T07:03:37.721Z,14.80
2023-05-14T07:06:07.802Z,14.80
2023-05-14T07:08:36.148Z,14.80
2023-05-14T07:11:04.250Z,14.90
2023-05-14T07:13:32.265Z,15.10
2023-05-14T07:16:00.627Z,15.20
2023-05-14T07:18:28.854Z,15.40
2023-05-14T07:20:56.840Z,15.70
2023-05-14T07:23:26.217Z,15.90
2023-05-14T07:25:54.231Z,16.00
2023-05-14T07:28:22.295Z,16.30
2023-05-14T07:30:50.242Z,16.30
2023-05-14T07:33:18.221Z,16.40
2023-05-14T07:35:46.378Z,16.50
2023-05-14T07:38:14.426Z,16.30
2023-05-14T07:40:43.938Z,16.50
2023-05-14T07:43:12.358Z,16.70
2023-05-14T07:45:40.328Z,16.80
2023-05-14T07:48:08.634Z,17.00
2023-05-14T07:50:36.802Z,17.20
2023-05-14T07:53:04.989Z,17.30
2023-05-14T07:55:32.998Z,17.70
2023-05-14T07:58:02.388Z,20.30
2023-05-14T08:00:30.765Z,22.50
2023-05-14T08:02:58.890Z,23.40
2023-05-14T08:05:27.374Z,24.50
2023-05-14T08:07:55.419Z,24.30
2023-05-14T08:10:23.787Z,24.70
2023-05-14T08:12:51.966Z,25.60
2023-05-14T08:15:21.654Z,26.70
2023-05-14T08:17:49.669Z,28.20
2023-05-14T08:20:17.866Z,28.20
2023-05-14T08:22:45.814Z,28.20
2023-05-14T08:25:13.881Z,27.30
2023-05-14T08:27:41.915Z,27.00
2023-05-14T08:30:10.438Z,26.70
2023-05-14T08:32:39.758Z,28.20
2023-05-14T08:35:08.463Z,28.10
2023-05-14T08:37:36.421Z,28.50
2023-05-14T08:40:04.759Z,29.10
2023-05-14T08:42:33.339Z,29.60
2023-05-14T08:45:02.995Z,31.40
2023-05-14T08:47:32.166Z,32.40
2023-05-14T08:50:04.442Z,33.20
2023-05-14T08:52:33.078Z,33.20
2023-05-14T08:55:04.862Z,32.60
2023-05-14T08:57:34.286Z,31.20
2023-05-14T09:00:06.792Z,31.80
2023-05-14T09:02:36.844Z,31.50
2023-05-14T09:05:07.428Z,31.20
2023-05-14T09:07:35.491Z,31.10
2023-05-14T09:10:03.986Z,32.80
2023-05-14T09:12:32.323Z,34.10
2023-05-14T09:15:00.303Z,36.80
2023-05-14T09:17:28.991Z,37.60
2023-05-14T09:19:57.561Z,36.90
2023-05-14T09:22:30.202Z,36.90
2023-05-14T09:25:06.194Z,37.70
2023-05-14T09:27:34.771Z,38.80
2023-05-14T09:30:07.641Z,40.10
2023-05-14T09:32:40.190Z,39.40
2023-05-14T09:35:17.635Z,38.40
2023-05-14T09:37:49.765Z,39.30
2023-05-14T09:40:19.678Z,37.50
2023-05-14T09:42:48.322Z,37.50
2023-05-14T09:45:16.901Z,39.20
2023-05-14T09:47:46.042Z,37.90
2023-05-14T09:50:14.365Z,37.10
2023-05-14T09:52:42.383Z,35.40
2023-05-14T09:55:11.862Z,34.90
2023-05-14T09:57:39.924Z,34.40
2023-05-14T10:00:10.300Z,34.80
2023-05-14T10:02:41.302Z,36.00
2023-05-14T10:05:10.450Z,36.00
2023-05-14T10:07:43.449Z,36.70
2023-05-14T10:10:17.584Z,36.20
2023-05-14T10:12:52.462Z,37.40
2023-05-14T10:15:25.076Z,37.40
2023-05-14T10:18:00.313Z,36.60
2023-05-14T10:20:29.556Z,35.40
2023-05-14T10:22:57.781Z,33.20
2023-05-14T10:25:27.988Z,30.50
2023-05-14T10:27:56.316Z,29.90
2023-05-14T10:30:24.705Z,28.70
2023-05-14T10:33:08.210Z,27.00
2023-05-14T10:35:58.387Z,25.10
2023-05-14T10:38:28.480Z,24.10
2023-05-14T10:41:03.163Z,23.50
2023-05-14T10:43:32.327Z,23.20
2023-05-14T10:46:01.582Z,23.60
2023-05-14T10:48:29.865Z,24.00
2023-05-14T10:50:58.804Z,23.60
2023-05-14T10:53:37.260Z,23.60
2023-05-14T10:56:08.949Z,24.20
2023-05-14T10:58:38.400Z,24.20
2023-05-14T11:01:08.339Z,24.10
2023-05-14T11:03:41.978Z,24.20
2023-05-14T11:06:11.095Z,24.40
2023-05-14T11:08:39.979Z,24.20
2023-05-14T11:11:10.576Z,24.10
2023-05-14T11:13:39.066Z,23.70
2023-05-14T11:16:21.679Z,23.40
2023-05-14T11:18:55.812Z,23.70
2023-05-14T11:21:23.968Z,23.40
2023-05-14T11:23:51.954Z,23.40
2023-05-14T11:26:22.226Z,23.60
2023-05-14T11:28:50.380Z,23.60
2023-05-14T11:31:19.031Z,23.40
2023-05-14T11:33:47.558Z,23.20
2023-05-14T11:36:15.565Z,23.20
2023-05-14T11:38:51.554Z,22.80
2023-05-14T11:41:22.998Z,23.20
2023-05-14T11:43:51.426Z,23.10
2023-05-14T11:46:20.022Z,23.20
2023-05-14T11:48:48.501Z,23.30
2023-05-14T11:51:16.577Z,22.90
2023-05-14T11:53:46.008Z,22.70
2023-05-14T11:56:14.057Z,22.40
2023-05-14T11:58:49.234Z,22.50
2023-05-14T12:01:17.333Z,22.80
2023-05-14T12:03:45.527Z,22.80
2023-05-14T12:06:13.565Z,22.70
2023-05-14T12:08:41.740Z,22.70
2023-05-14T12:11:10.326Z,22.70
2023-05-14T12:13:38.399Z,22.60
2023-05-14T12:16:08.193Z,22.90
2023-05-14T12:18:36.363Z,23.00
2023-05-14T12:21:05.278Z,23.10
2023-05-14T12:23:33.723Z,22.70
2023-05-14T12:26:06.960Z,22.70
2023-05-14T12:28:38.566Z,22.80
2023-05-14T12:31:08.139Z,22.80
2023-05-14T12:33:36.120Z,22.90
2023-05-14T12:36:20.708Z,22.60
2023-05-14T12:38:50.630Z,22.40
2023-05-14T12:41:18.948Z,22.70
2023-05-14T12:43:49.589Z,22.70
2023-05-14T12:46:19.140Z,22.90
2023-05-14T12:48:47.347Z,23.10
2023-05-14T12:51:15.908Z,23.20
2023-05-14T12:53:44.033Z,23.00
2023-05-14T12:56:12.180Z,22.80
2023-05-14T12:58:40.583Z,22.80
2023-05-14T13:01:08.766Z,22.70
2023-05-14T13:03:38.260Z,22.80
2023-05-14T13:06:06.521Z,22.60
2023-05-14T13:08:34.498Z,22.20
2023-05-14T13:11:02.527Z,22.00
2023-05-14T13:13:30.611Z,22.00
2023-05-14T13:15:58.747Z,22.40
2023-05-14T13:18:27.259Z,22.70
2023-05-14T13:20:56.606Z,22.80
2023-05-14T13:23:24.885Z,22.60
2023-05-14T13:25:52.842Z,22.70
2023-05-14T13:28:20.807Z,22.80
2023-05-14T13:31:06.884Z,22.70
2023-05-14T13:33:36.416Z,22.20
2023-05-14T13:36:06.758Z,22.20
2023-05-14T13:38:34.866Z,22.20
2023-05-14T13:41:03.162Z,22.40
2023-05-14T13:43:31.793Z,22.20
2023-05-14T13:46:00.151Z,21.90
2023-05-14T13:48:28.788Z,21.70
2023-05-14T13:50:56.814Z,21.70
2023-05-14T13:53:26.657Z,21.80
2023-05-14T13:55:56.645Z,21.80
2023-05-14T13:58:25.193Z,21.60
2023-05-14T14:00:54.134Z,21.60
2023-05-14T14:03:22.347Z,21.80
2023-05-14T14:05:51.644Z,21.90
2023-05-14T14:08:23.824Z,21.90
2023-05-14T14:10:55.380Z,22.00
2023-05-14T14:13:24.464Z,22.00
2023-05-14T14:15:52.691Z,21.90
2023-05-14T14:18:20.799Z,21.90
2023-05-14T14:20:49.185Z,22.00
2023-05-14T14:23:17.204Z,21.90
2023-05-14T14:25:45.299Z,21.70
2023-05-14T14:28:14.731Z,21.50
2023-05-14T14:30:43.846Z,21.50
2023-05-14T14:33:12.369Z,21.60
2023-05-14T14:35:40.532Z,21.70
2023-05-14T14:38:08.513Z,21.70
2023-05-14T14:40:36.580Z,21.70
2023-05-14T14:43:04.596Z,21.70
2023-05-14T14:45:34.068Z,21.70
2023-05-14T14:48:31.348Z,21.60
2023-05-14T14:50:59.773Z,21.60
2023-05-14T14:53:28.004Z,21.60
2023-05-14T14:55:56.447Z,21.40
2023-05-14T14:58:25.169Z,21.30
2023-05-14T15:00:56.388Z,21.30
2023-05-14T15:03:25.968Z,21.20
2023-05-14T15:05:54.398Z,21.10
2023-05-14T15:08:27.357Z,21.00
2023-05-14T15:10:55.676Z,21.00
2023-05-14T15:13:24.617Z,20.90
2023-05-14T15:15:54.340Z,20.80
2023-05-14T15:18:22.477Z,20.80
2023-05-14T15:20:50.695Z,20.90
2023-05-14T15:23:18.686Z,20.90
2023-05-14T15:25:46.772Z,20.80
2023-05-14T15:28:14.791Z,20.70
2023-05-14T15:30:42.774Z,20.70
2023-05-14T15:33:12.323Z,20.60
2023-05-14T15:35:40.495Z,20.60
2023-05-14T15:38:08.526Z,20.50
2023-05-14T15:40:36.507Z,20.50
2023-05-14T15:43:04.567Z,20.40
2023-05-14T15:45:32.597Z,20.30
2023-05-14T15:48:00.957Z,20.20
2023-05-14T15:50:30.432Z,20.20
2023-05-14T15:52:58.396Z,20.10
2023-05-14T15:55:26.415Z,20.10
2023-05-14T15:57:54.389Z,20.10
2023-05-14T16:00:22.892Z,20.10
2023-05-14T16:02:51.160Z,20.10
2023-05-14T16:05:19.292Z,20.10
2023-05-14T16:07:48.813Z,20.00
2023-05-14T16:10:16.859Z,20.00
2023-05-14T16:12:44.847Z,20.00
2023-05-14T16:15:12.992Z,20.00
2023-05-14T16:17:41.036Z,20.00
2023-05-14T16:20:09.948Z,19.90
2023-05-14T16:22:37.928Z,19.90
2023-05-14T16:25:07.931Z,19.80
2023-05-14T16:27:36.040Z,19.80
2023-05-14T16:30:04.519Z,19.80
2023-05-14T16:32:32.529Z,19.80
2023-05-14T16:35:02.469Z,19.70
2023-05-14T16:37:30.629Z,19.70
2023-05-14T16:39:58.584Z,19.60
2023-05-14T16:42:27.993Z,19.60
2023-05-14T16:44:55.963Z,19.60
2023-05-14T16:47:23.956Z,19.70
2023-05-14T16:49:51.901Z,19.60
2023-05-14T16:52:20.040Z,19.60
2023-05-14T16:54:47.979Z,19.50
2023-05-14T16:57:15.954Z,19.50
2023-05-14T16:59:45.261Z,19.40
2023-05-14T17:02:13.234Z,19.40
2023-05-14T17:04:42.280Z,19.40
2023-05-14T17:07:10.357Z,19.40
2023-05-14T17:09:38.507Z,19.30
2023-05-14T17:12:07.140Z,19.30
2023-05-14T17:14:35.075Z,19.30
2023-05-14T17:17:05.356Z,19.20
2023-05-14T17:19:33.354Z,19.10
2023-05-14T17:22:01.301Z,19.10
2023-05-14T17:24:29.277Z,19.00
2023-05-14T17:26:57.269Z,19.00
2023-05-14T17:29:25.336Z,19.00
2023-05-14T17:31:53.497Z,18.90
2023-05-14T17:34:22.970Z,18.90
2023-05-14T17:36:51.116Z,18.90
2023-05-14T17:39:19.075Z,18.80
2023-05-14T17:41:47.224Z,18.80
2023-05-14T17:44:15.193Z,18.80
2023-05-14T17:46:44.811Z,18.80
2023-05-14T17:49:12.942Z,18.80
2023-05-14T17:51:42.302Z,18.70
2023-05-14T17:54:10.377Z,18.70
2023-05-14T17:56:38.628Z,18.60
2023-05-14T17:59:07.060Z,18.50
2023-05-14T18:01:35.201Z,18.40
2023-05-14T18:04:03.328Z,18.40
2023-05-14T18:06:31.376Z,18.20
2023-05-14T18:09:00.675Z,18.20
2023-05-14T18:11:32.766Z,18.00
2023-05-14T18:14:01.097Z,17.80
2023-05-14T18:16:29.253Z,17.70
2023-05-14T18:18:57.347Z,17.60
2023-05-14T18:21:25.343Z,17.50
2023-05-14T18:23:53.279Z,17.50
2023-05-14T18:26:23.175Z,17.50
2023-05-14T18:28:51.162Z,17.40
2023-05-14T18:31:19.247Z,17.30
2023-05-14T18:33:47.374Z,17.20
2023-05-14T18:36:15.365Z,17.00
2023-05-14T18:38:43.318Z,17.00
2023-05-14T18:41:11.261Z,16.90
2023-05-14T18:43:40.579Z,16.80
2023-05-14T18:46:08.591Z,16.80
2023-05-14T18:48:36.566Z,16.60
2023-05-14T18:51:05.415Z,16.50
2023-05-14T18:53:33.732Z,16.30
2023-05-14T18:56:01.763Z,16.20
2023-05-14T18:58:29.745Z,16.20
2023-05-14T19:00:59.101Z,16.20
2023-05-14T19:03:27.251Z,16.20
2023-05-14T19:05:55.433Z,16.20
2023-05-14T19:08:23.466Z,16.10
2023-05-14T19:10:51.768Z,16.00
2023-05-14T19:13:19.698Z,15.80
2023-05-14T19:15:47.734Z,15.70
2023-05-14T19:18:17.685Z,15.70
2023-05-14T19:20:46.660Z,15.70
2023-05-14T19:23:14.607Z,15.60
2023-05-14T19:25:42.568Z,15.60
2023-05-14T19:28:10.549Z,15.40
2023-05-14T19:30:38.533Z,15.30
2023-05-14T19:33:06.516Z,15.30
2023-05-14T19:35:35.993Z,15.30
2023-05-14T19:38:03.957Z,15.20
2023-05-14T19:40:31.910Z,15.10
2023-05-14T19:42:59.848Z,15.10
2023-05-14T19:45:27.934Z,15.00
2023-05-14T19:47:55.911Z,15.00
2023-05-14T19:50:23.875Z,14.90
2023-05-14T19:52:53.245Z,14.90
2023-05-14T19:55:21.233Z,15.10
2023-05-14T19:57:49.211Z,15.10
2023-05-14T20:00:17.590Z,15.00
2023-05-14T20:02:45.669Z,15.10
2023-05-14T20:05:14.043Z,15.10
2023-05-14T20:07:42.604Z,15.10
2023-05-14T20:10:12.379Z,15.00
2023-05-14T20:12:40.414Z,15.00
2023-05-14T20:15:09.378Z,15.00
2023-05-14T20:17:38.705Z,15.00
2023-05-14T20:20:09.125Z,15.00
2023-05-14T20:22:38.318Z,15.00
2023-05-14T20:25:07.088Z,15.00
2023-05-14T20:27:36.471Z,15.00
2023-05-14T20:30:04.783Z,15.00
2023-05-14T20:32:32.797Z,14.90
2023-05-14T20:35:02.173Z,14.80
2023-05-14T20:37:31.204Z,14.70
2023-05-14T20:39:59.219Z,14.80
2023-05-14T20:42:28.015Z,14.60
2023-05-14T20:44:57.312Z,14.50
2023-05-14T20:47:30.425Z,14.30
2023-05-14T20:49:58.421Z,14.30
2023-05-14T20:52:26.777Z,14.30
2023-05-14T20:54:54.793Z,14.30
2023-05-14T20:57:22.805Z,14.40
2023-05-14T20:59:50.808Z,14.50
2023-05-14T21:02:20.323Z,14.50
2023-05-14T21:04:48.487Z,14.40
2023-05-14T21:07:16.457Z,14.30
2023-05-14T21:09:46.501Z,14.30
2023-05-14T21:12:14.618Z,14.40
2023-05-14T21:14:42.811Z,14.50
2023-05-14T21:17:10.770Z,14.40
2023-05-14T21:19:40.073Z,14.40
2023-05-14T21:22:08.164Z,14.40
2023-05-14T21:24:36.097Z,14.40
2023-05-14T21:27:04.135Z,14.30
2023-05-14T21:29:32.115Z,14.20
2023-05-14T21:32:00.220Z,14.10
2023-05-14T21:34:29.813Z,14.20
2023-05-14T21:37:00.523Z,14.20
2023-05-14T21:39:28.485Z,14.20
2023-05-14T21:41:56.486Z,14.10
2023-05-14T21:44:24.431Z,14.00
2023-05-14T21:46:52.397Z,14.10
2023-05-14T21:49:20.801Z,14.00
2023-05-14T21:51:52.900Z,14.00
2023-05-14T21:54:22.641Z,14.00
2023-05-14T21:56:50.984Z,14.00
2023-05-14T21:59:18.940Z,14.00
2023-05-14T22:02:05.584Z,14.00
2023-05-14T22:04:35.266Z,13.90
2023-05-14T22:07:03.579Z,13.90
2023-05-14T22:09:32.901Z,13.90
2023-05-14T22:12:00.952Z,13.80
2023-05-14T22:14:28.949Z,13.80
2023-05-14T22:16:57.550Z,13.80
2023-05-14T22:19:26.816Z,13.80
2023-05-14T22:21:55.160Z,13.80
2023-05-14T22:24:23.182Z,13.80
2023-05-14T22:26:52.610Z,13.80
2023-05-14T22:29:20.582Z,13.80
2023-05-14T22:31:48.649Z,13.80
2023-05-14T22:34:16.717Z,13.80
2023-05-14T22:36:44.787Z,13.70
2023-05-14T22:39:13.586Z,13.70
2023-05-14T22:41:41.762Z,13.70
2023-05-14T22:44:11.118Z,13.70
2023-05-14T22:46:39.191Z,13.80
2023-05-14T22:49:07.234Z,13.80
2023-05-14T22:51:35.184Z,13.80
2023-05-14T22:54:03.120Z,13.80
2023-05-14T22:56:31.150Z,13.80
2023-05-14T22:59:00.312Z,13.90
2023-05-14T23:01:30.409Z,13.80
2023-05-14T23:03:58.415Z,13.80
2023-05-14T23:06:27.704Z,13.80
2023-05-14T23:08:55.759Z,13.80
2023-05-14T23:11:23.973Z,13.70
2023-05-14T23:13:52.009Z,13.70
2023-05-14T23:16:20.506Z,13.60
2023-05-14T23:18:50.001Z,13.60
2023-05-14T23:21:18.024Z,13.70
2023-05-14T23:23:46.747Z,13.70
2023-05-14T23:26:14.779Z,13.80
2023-05-14T23:28:42.772Z,13.70
2023-05-14T23:31:10.741Z,13.70
2023-05-14T23:33:39.863Z,13.70
2023-05-14T23:36:10.087Z,13.70
2023-05-14T23:38:38.174Z,13.60
2023-05-14T23:41:06.197Z,13.60
2023-05-14T23:43:34.208Z,13.60
2023-05-14T23:46:02.312Z,13.60
2023-05-14T23:48:30.717Z,13.60
2023-05-14T23:50:58.719Z,13.60
2023-05-14T23:53:28.068Z,13.80
2023-05-14T23:55:56.157Z,13.70
2023-05-14T23:58:24.199Z,13.60
